createdAt,value
2017-11-28T00:01:20.437Z,5.70
2017-11-28T00:03:48.013Z,5.70
2017-11-28T00:06:15.551Z,5.70
2017-11-28T00:08:43.127Z,5.70
2017-11-28T00:11:10.706Z,5.70
2017-11-28T00:13:38.319Z,5.70
2017-11-28T00:16:06.731Z,5.60
2017-11-28T00:18:34.314Z,5.60
2017-11-28T00:21:02.828Z,5.60
2017-11-28T00:23:30.511Z,5.60
2017-11-28T00:25:58.830Z,5.60
2017-11-28T00:28:26.380Z,5.60
2017-11-28T00:30:53.908Z,5.60
2017-11-28T00:33:22.229Z,5.60
2017-11-28T00:35:49.812Z,5.60
2017-11-28T00:38:17.351Z,5.60
2017-11-28T00:40:44.940Z,5.60
2017-11-28T00:43:12.512Z,5.60
2017-11-28T00:45:40.081Z,5.60
2017-11-28T00:48:07.628Z,5.60
2017-11-28T00:50:35.212Z,5.60
2017-11-28T00:53:02.756Z,5.50
2017-11-28T00:55:30.327Z,5.50
2017-11-28T00:57:58.639Z,5.50
2017-11-28T01:00:26.232Z,5.50
2017-11-28T01:02:54.639Z,5.50
2017-11-28T01:05:22.208Z,5.50
2017-11-28T01:07:49.761Z,5.50
2017-11-28T01:10:17.308Z,5.50
2017-11-28T01:12:44.868Z,5.50
2017-11-28T01:15:12.420Z,5.50
2017-11-28T01:17:39.957Z,5.50
2017-11-28T01:20:07.521Z,5.50
2017-11-28T01:22:35.063Z,5.60
2017-11-28T01:25:03.512Z,5.50
2017-11-28T01:27:31.084Z,5.50
2017-11-28T01:29:58.623Z,5.50
2017-11-28T01:32:26.222Z,5.60
2017-11-28T01:34:54.540Z,5.60
2017-11-28T01:37:22.088Z,5.60
2017-11-28T01:39:49.665Z,5.60
2017-11-28T01:42:17.209Z,5.60
2017-11-28T01:44:44.775Z,5.60
2017-11-28T01:47:12.330Z,5.60
2017-11-28T01:49:39.888Z,5.60
2017-11-28T01:52:07.449Z,5.60
2017-11-28T01:54:35.021Z,5.60
2017-11-28T01:57:02.554Z,5.60
2017-11-28T01:59:30.893Z,5.60
2017-11-28T02:01:58.424Z,5.60
2017-11-28T02:04:26.078Z,5.60
2017-11-28T02:06:54.409Z,5.60
2017-11-28T02:09:21.971Z,5.60
2017-11-28T02:11:49.599Z,5.60
2017-11-28T02:14:17.129Z,5.60
2017-11-28T02:16:45.419Z,5.60
2017-11-28T02:19:12.990Z,5.60
2017-11-28T02:21:40.560Z,5.70
2017-11-28T02:24:08.083Z,5.70
2017-11-28T02:26:35.636Z,5.70
2017-11-28T02:29:03.194Z,5.70
2017-11-28T02:31:30.764Z,5.70
2017-11-28T02:33:58.330Z,5.70
2017-11-28T02:36:26.637Z,5.70
2017-11-28T02:38:54.197Z,5.60
2017-11-28T02:41:21.744Z,5.70
2017-11-28T02:43:57.927Z,5.70
2017-11-28T02:46:25.648Z,5.70
2017-11-28T02:49:17.972Z,5.70
2017-11-28T02:51:49.400Z,5.70
2017-11-28T02:54:16.944Z,5.70
2017-11-28T02:56:44.507Z,5.70
2017-11-28T02:59:13.023Z,5.70
2017-11-28T03:01:43.365Z,5.70
2017-11-28T03:04:10.894Z,5.70
2017-11-28T03:06:38.606Z,5.70
2017-11-28T03:09:08.713Z,5.80
2017-11-28T03:11:36.329Z,5.80
2017-11-28T03:14:22.533Z,5.80
2017-11-28T03:16:50.091Z,5.80
2017-11-28T03:22:33.776Z,5.80
2017-11-28T03:28:32.243Z,5.80
2017-11-28T03:31:13.424Z,5.80
2017-11-28T03:33:41.763Z,5.80
2017-11-28T03:36:09.344Z,5.80
2017-11-28T03:38:36.904Z,5.80
2017-11-28T03:41:05.239Z,5.90
2017-11-28T03:43:32.800Z,5.90
2017-11-28T03:46:06.841Z,5.90
2017-11-28T03:48:35.175Z,5.80
2017-11-28T03:51:02.756Z,5.90
2017-11-28T03:53:30.315Z,5.80
2017-11-28T03:55:57.873Z,5.80
2017-11-28T03:58:25.494Z,5.80
2017-11-28T04:00:53.137Z,5.80
2017-11-28T04:03:20.672Z,5.80
2017-11-28T04:05:48.245Z,5.80
2017-11-28T04:08:15.823Z,5.80
2017-11-28T04:10:43.360Z,5.80
2017-11-28T04:13:11.075Z,5.80
2017-11-28T04:15:39.406Z,5.80
2017-11-28T04:18:06.994Z,5.80
2017-11-28T04:20:34.552Z,5.80
2017-11-28T04:23:02.095Z,5.80
2017-11-28T04:25:29.669Z,5.80
2017-11-28T04:27:57.203Z,5.80
2017-11-28T04:30:24.766Z,5.80
2017-11-28T04:32:52.299Z,5.80
2017-11-28T04:35:19.860Z,5.80
2017-11-28T04:37:48.155Z,5.80
2017-11-28T04:40:15.728Z,5.80
2017-11-28T04:42:43.301Z,5.80
2017-11-28T04:45:10.857Z,5.80
2017-11-28T04:47:38.512Z,5.80
2017-11-28T04:50:06.179Z,5.80
2017-11-28T04:52:33.760Z,5.80
2017-11-28T04:55:01.335Z,5.80
2017-11-28T04:57:28.887Z,5.80
2017-11-28T04:59:56.440Z,5.80
2017-11-28T05:02:24.840Z,5.80
2017-11-28T05:04:52.400Z,5.80
2017-11-28T05:07:20.070Z,5.80
2017-11-28T05:09:47.628Z,5.80
2017-11-28T05:12:15.299Z,5.80
2017-11-28T05:14:42.832Z,5.80
2017-11-28T05:17:10.432Z,5.80
2017-11-28T05:19:38.747Z,5.80
2017-11-28T05:22:06.321Z,5.80
2017-11-28T05:24:33.883Z,5.80
2017-11-28T05:27:01.504Z,5.80
2017-11-28T05:29:29.044Z,5.80
2017-11-28T05:31:56.623Z,5.80
2017-11-28T05:34:24.167Z,5.80
2017-11-28T05:36:51.704Z,5.70
2017-11-28T05:39:19.256Z,5.70
2017-11-28T05:41:46.967Z,5.70
2017-11-28T05:44:14.577Z,5.60
2017-11-28T05:46:42.146Z,5.60
2017-11-28T05:49:09.710Z,5.60
2017-11-28T05:51:37.269Z,5.60
2017-11-28T05:54:07.616Z,5.60
2017-11-28T05:56:35.150Z,5.60
2017-11-28T05:59:02.769Z,5.60
2017-11-28T06:01:31.103Z,5.50
2017-11-28T06:03:58.671Z,5.50
2017-11-28T06:06:26.236Z,5.40
2017-11-28T06:08:53.771Z,5.40
2017-11-28T06:11:21.318Z,5.30
2017-11-28T06:13:48.871Z,5.20
2017-11-28T06:16:16.452Z,5.10
2017-11-28T06:18:44.007Z,5.10
2017-11-28T06:21:11.570Z,5.10
2017-11-28T06:23:39.155Z,5.10
2017-11-28T06:26:06.707Z,5.10
2017-11-28T06:28:34.258Z,5.10
2017-11-28T06:31:01.803Z,5.10
2017-11-28T06:33:30.331Z,4.80
2017-11-28T06:35:57.896Z,4.90
2017-11-28T06:38:25.459Z,4.70
2017-11-28T06:40:53.010Z,4.60
2017-11-28T06:43:21.388Z,4.50
2017-11-28T06:45:48.922Z,4.50
2017-11-28T06:48:16.711Z,4.50
2017-11-28T06:50:44.270Z,4.50
2017-11-28T06:53:11.806Z,4.40
2017-11-28T06:55:40.160Z,4.30
2017-11-28T06:58:07.764Z,4.30
2017-11-28T07:00:35.333Z,4.30
2017-11-28T07:03:02.918Z,4.10
2017-11-28T07:05:30.495Z,4.10
2017-11-28T07:07:58.043Z,4.00
2017-11-28T07:10:25.616Z,4.00
2017-11-28T07:12:53.163Z,4.00
2017-11-28T07:15:20.733Z,4.10
2017-11-28T07:17:48.288Z,4.00
2017-11-28T07:20:15.852Z,3.90
2017-11-28T07:22:43.440Z,3.90
2017-11-28T07:25:10.996Z,3.90
2017-11-28T07:27:38.583Z,3.90
2017-11-28T07:30:06.995Z,3.90
2017-11-28T07:32:34.552Z,3.90
2017-11-28T07:35:02.130Z,4.00
2017-11-28T07:37:29.679Z,3.90
2017-11-28T07:39:57.356Z,3.90
2017-11-28T07:42:24.890Z,3.80
2017-11-28T07:44:52.452Z,3.80
2017-11-28T07:47:19.999Z,3.90
2017-11-28T07:49:47.581Z,3.90
2017-11-28T07:52:15.167Z,3.80
2017-11-28T07:54:42.723Z,3.90
2017-11-28T07:57:10.288Z,3.90
2017-11-28T07:59:37.847Z,3.90
2017-11-28T08:02:05.593Z,3.90
2017-11-28T08:04:33.158Z,3.90
2017-11-28T08:07:00.732Z,3.90
2017-11-28T08:09:28.291Z,3.90
2017-11-28T08:11:55.859Z,3.90
2017-11-28T08:14:23.428Z,4.00
2017-11-28T08:16:50.975Z,4.10
2017-11-28T08:19:18.545Z,4.10
2017-11-28T08:21:46.119Z,4.10
2017-11-28T08:24:13.695Z,4.10
2017-11-28T08:26:42.012Z,4.10
2017-11-28T08:29:09.603Z,4.10
2017-11-28T08:31:37.467Z,4.20
2017-11-28T08:34:05.007Z,4.20
2017-11-28T08:36:33.487Z,4.40
2017-11-28T08:39:01.045Z,4.40
2017-11-28T08:41:28.599Z,4.40
2017-11-28T08:43:56.149Z,4.50
2017-11-28T08:46:23.709Z,4.50
2017-11-28T08:48:52.042Z,4.70
2017-11-28T08:51:19.607Z,4.70
2017-11-28T08:53:47.159Z,4.80
2017-11-28T08:56:14.738Z,4.90
2017-11-28T08:58:43.072Z,5.00
2017-11-28T09:01:10.619Z,5.00
2017-11-28T09:03:38.187Z,5.10
2017-11-28T09:06:05.726Z,5.10
2017-11-28T09:08:34.097Z,5.10
2017-11-28T09:11:01.656Z,5.10
2017-11-28T09:13:30.013Z,5.30
2017-11-28T09:15:57.588Z,5.30
2017-11-28T09:18:25.149Z,5.30
2017-11-28T09:20:52.710Z,5.50
2017-11-28T09:23:21.677Z,5.80
2017-11-28T09:25:49.407Z,5.70
2017-11-28T09:28:16.957Z,5.80
2017-11-28T09:30:45.262Z,5.90
2017-11-28T09:33:12.830Z,5.80
2017-11-28T09:35:40.388Z,5.90
2017-11-28T09:38:07.964Z,5.90
2017-11-28T09:40:35.655Z,6.00
2017-11-28T09:43:03.259Z,6.10
2017-11-28T09:45:30.806Z,6.10
2017-11-28T09:47:59.167Z,6.30
2017-11-28T09:50:26.712Z,6.30
2017-11-28T09:52:54.273Z,6.50
2017-11-28T09:55:21.830Z,6.50
2017-11-28T09:57:49.610Z,6.50
2017-11-28T10:00:17.199Z,6.60
2017-11-28T10:02:45.532Z,7.00
2017-11-28T10:05:13.088Z,7.00
2017-11-28T10:07:40.683Z,7.10
2017-11-28T10:10:08.991Z,7.60
2017-11-28T10:12:36.564Z,7.60
2017-11-28T10:15:04.176Z,7.90
2017-11-28T10:17:31.779Z,8.00
2017-11-28T10:19:59.344Z,8.40
2017-11-28T10:22:26.940Z,9.10
2017-11-28T10:24:54.481Z,9.60
2017-11-28T10:27:22.018Z,9.70
2017-11-28T10:29:50.379Z,9.40
2017-11-28T10:32:17.912Z,9.40
2017-11-28T10:34:45.488Z,9.10
2017-11-28T10:37:13.051Z,9.40
2017-11-28T10:39:40.604Z,9.80
2017-11-28T10:42:08.155Z,9.80
2017-11-28T10:44:35.904Z,10.20
2017-11-28T10:47:03.485Z,10.20
2017-11-28T10:49:31.039Z,10.00
2017-11-28T10:51:58.598Z,10.20
2017-11-28T10:54:26.991Z,10.40
2017-11-28T10:56:54.653Z,10.40
2017-11-28T10:59:22.228Z,10.40
2017-11-28T11:01:49.804Z,10.30
2017-11-28T11:04:17.470Z,10.80
2017-11-28T11:06:45.013Z,10.60
2017-11-28T11:09:12.612Z,11.40
2017-11-28T11:11:40.931Z,10.70
2017-11-28T11:14:08.499Z,10.70
2017-11-28T11:16:36.251Z,10.50
2017-11-28T11:19:03.780Z,10.00
2017-11-28T11:21:32.204Z,9.30
2017-11-28T11:23:59.747Z,9.20
2017-11-28T11:26:27.549Z,9.00
2017-11-28T11:28:55.104Z,8.90
2017-11-28T11:31:22.671Z,8.50
2017-11-28T11:33:50.311Z,8.40
2017-11-28T11:36:17.879Z,8.40
2017-11-28T11:38:45.456Z,8.40
2017-11-28T11:41:13.030Z,8.60
2017-11-28T11:43:40.645Z,8.40
2017-11-28T11:46:08.198Z,8.20
2017-11-28T11:48:35.770Z,8.20
2017-11-28T11:51:03.324Z,8.00
2017-11-28T11:53:31.642Z,7.90
2017-11-28T11:55:59.323Z,7.90
2017-11-28T11:58:26.875Z,7.90
2017-11-28T12:00:54.615Z,7.90
2017-11-28T12:03:22.141Z,8.00
2017-11-28T12:05:50.475Z,7.70
2017-11-28T12:08:18.023Z,7.70
2017-11-28T12:10:45.615Z,7.70
2017-11-28T12:13:13.167Z,7.80
2017-11-28T12:15:40.738Z,7.80
2017-11-28T12:18:08.310Z,7.90
2017-11-28T12:20:35.891Z,7.80
2017-11-28T12:23:04.214Z,7.80
2017-11-28T12:25:31.777Z,7.80
2017-11-28T12:27:59.320Z,7.90
2017-11-28T12:30:27.053Z,7.80
2017-11-28T12:32:55.391Z,7.80
2017-11-28T12:35:34.081Z,7.80
2017-11-28T12:38:01.660Z,7.80
2017-11-28T12:40:29.275Z,7.80
2017-11-28T12:42:56.841Z,8.20
2017-11-28T12:45:24.400Z,8.30
2017-11-28T12:47:51.962Z,8.20
2017-11-28T12:50:19.512Z,8.30
2017-11-28T12:52:47.036Z,8.80
2017-11-28T12:55:14.606Z,9.70
2017-11-28T12:57:42.184Z,10.40
2017-11-28T13:00:09.857Z,10.80
2017-11-28T13:02:37.363Z,10.80
2017-11-28T13:05:04.955Z,10.80
2017-11-28T13:07:32.488Z,10.60
2017-11-28T13:10:00.062Z,10.40
2017-11-28T13:12:27.628Z,10.00
2017-11-28T13:14:55.239Z,10.20
2017-11-28T13:17:22.799Z,9.80
2017-11-28T13:19:50.380Z,9.90
2017-11-28T13:22:18.808Z,9.10
2017-11-28T13:24:46.414Z,9.10
2017-11-28T13:27:14.015Z,8.80
2017-11-28T13:29:41.668Z,8.80
2017-11-28T13:32:09.211Z,8.60
2017-11-28T13:34:37.604Z,8.70
2017-11-28T13:37:05.899Z,8.70
2017-11-28T13:39:34.496Z,8.70
2017-11-28T13:42:02.070Z,8.70
2017-11-28T13:44:29.677Z,8.60
2017-11-28T13:46:58.052Z,8.60
2017-11-28T13:49:26.429Z,8.40
2017-11-28T13:51:54.741Z,8.30
2017-11-28T13:54:22.304Z,8.30
2017-11-28T13:56:49.849Z,8.20
2017-11-28T13:59:17.427Z,8.10
2017-11-28T14:01:45.073Z,7.90
2017-11-28T14:04:12.650Z,7.80
2017-11-28T14:06:40.235Z,7.80
2017-11-28T14:09:07.814Z,7.90
2017-11-28T14:11:35.396Z,7.90
2017-11-28T14:14:03.779Z,7.80
2017-11-28T14:16:32.104Z,7.80
2017-11-28T14:18:59.687Z,7.80
2017-11-28T14:24:38.905Z,7.60
2017-11-28T14:27:06.447Z,7.60
2017-11-28T14:29:34.887Z,7.50
2017-11-28T14:32:07.976Z,7.50
2017-11-28T14:34:53.480Z,7.40
2017-11-28T14:37:21.818Z,7.40
2017-11-28T14:39:49.360Z,7.40
2017-11-28T14:42:18.021Z,7.40
2017-11-28T14:44:49.138Z,7.40
2017-11-28T14:47:16.705Z,7.30
2017-11-28T14:49:44.284Z,7.30
2017-11-28T14:52:17.675Z,7.20
2017-11-28T14:54:50.737Z,7.10
2017-11-28T14:57:32.071Z,7.10
2017-11-28T15:00:06.046Z,7.10
2017-11-28T15:02:39.736Z,7.00
2017-11-28T15:05:12.829Z,7.00
2017-11-28T15:07:45.975Z,7.00
2017-11-28T15:10:30.198Z,6.80
2017-11-28T15:13:03.412Z,6.80
2017-11-28T15:15:36.777Z,6.80
2017-11-28T15:18:09.919Z,6.80
2017-11-28T15:20:56.258Z,6.80
2017-11-28T15:23:35.500Z,6.80
2017-11-28T15:26:04.957Z,6.70
2017-11-28T15:28:50.002Z,6.70
2017-11-28T15:31:17.587Z,6.70
2017-11-28T15:33:45.928Z,6.60
2017-11-28T15:36:13.474Z,6.60
2017-11-28T15:38:41.162Z,6.60
2017-11-28T15:41:08.832Z,6.60
2017-11-28T15:43:36.505Z,6.50
2017-11-28T15:46:04.999Z,6.40
2017-11-28T15:48:32.656Z,6.40
2017-11-28T15:51:01.105Z,6.20
2017-11-28T15:53:28.747Z,6.20
2017-11-28T15:56:06.462Z,6.20
2017-11-28T15:58:34.047Z,6.10
2017-11-28T16:01:01.608Z,6.10
2017-11-28T16:03:30.053Z,6.10
2017-11-28T16:05:57.748Z,6.10
2017-11-28T16:08:25.309Z,6.00
2017-11-28T16:10:52.940Z,5.90
2017-11-28T16:13:20.491Z,5.80
2017-11-28T16:15:48.297Z,5.80
2017-11-28T16:18:15.894Z,5.70
2017-11-28T16:20:43.705Z,5.70
2017-11-28T16:23:11.312Z,5.70
2017-11-28T16:25:39.649Z,5.60
2017-11-28T16:28:07.221Z,5.60
2017-11-28T16:30:35.135Z,5.40
2017-11-28T16:33:03.830Z,5.40
2017-11-28T16:35:32.223Z,5.10
2017-11-28T16:37:59.845Z,5.10
2017-11-28T16:40:28.178Z,5.10
2017-11-28T16:42:55.744Z,5.00
2017-11-28T16:45:23.293Z,4.90
2017-11-28T16:47:51.388Z,4.80
2017-11-28T16:50:19.053Z,4.80
2017-11-28T16:52:46.707Z,4.80
2017-11-28T16:55:15.092Z,5.00
2017-11-28T16:57:43.288Z,5.00
2017-11-28T17:00:10.886Z,4.90
2017-11-28T17:02:38.496Z,4.90
2017-11-28T17:05:06.355Z,5.00
2017-11-28T17:07:33.917Z,5.10
2017-11-28T17:10:01.465Z,5.00
2017-11-28T17:12:29.092Z,4.90
2017-11-28T17:14:56.765Z,4.80
2017-11-28T17:17:24.434Z,4.70
2017-11-28T17:19:52.036Z,4.60
2017-11-28T17:22:19.676Z,4.50
2017-11-28T17:24:48.061Z,4.50
2017-11-28T17:27:17.719Z,4.40
2017-11-28T17:29:45.378Z,4.40
2017-11-28T17:32:13.015Z,4.40
2017-11-28T17:34:40.647Z,4.30
2017-11-28T17:37:08.266Z,4.30
2017-11-28T17:39:36.040Z,4.40
2017-11-28T17:42:04.504Z,4.30
2017-11-28T17:44:32.124Z,4.30
2017-11-28T17:47:09.636Z,4.10
2017-11-28T17:49:37.194Z,4.00
2017-11-28T17:52:04.875Z,3.90
2017-11-28T17:54:32.462Z,3.90
2017-11-28T17:57:00.958Z,4.00
2017-11-28T17:59:29.309Z,3.90
2017-11-28T18:01:56.881Z,3.90
2017-11-28T18:04:24.462Z,3.80
2017-11-28T18:06:52.789Z,3.70
2017-11-28T18:09:20.364Z,3.70
2017-11-28T18:11:47.980Z,3.80
2017-11-28T18:14:15.727Z,3.80
2017-11-28T18:16:44.046Z,3.80
2017-11-28T18:19:11.677Z,3.80
2017-11-28T18:21:40.039Z,3.80
2017-11-28T18:24:07.608Z,3.80
2017-11-28T18:26:35.380Z,3.80
2017-11-28T18:29:03.927Z,3.70
2017-11-28T18:31:32.475Z,3.70
2017-11-28T18:34:00.151Z,3.70
2017-11-28T18:36:28.011Z,3.70
2017-11-28T18:38:55.588Z,3.60
2017-11-28T18:41:23.283Z,3.60
2017-11-28T18:43:51.495Z,3.70
2017-11-28T18:46:34.684Z,3.80
2017-11-28T18:49:02.219Z,3.80
2017-11-28T18:51:29.795Z,3.80
2017-11-28T18:53:57.371Z,3.80
2017-11-28T18:56:24.955Z,3.80
2017-11-28T18:58:52.536Z,3.70
2017-11-28T19:01:20.853Z,3.80
2017-11-28T19:03:49.376Z,3.80
2017-11-28T19:06:17.013Z,3.80
2017-11-28T19:08:45.397Z,3.60
2017-11-28T19:11:13.323Z,3.60
2017-11-28T19:13:41.982Z,3.50
2017-11-28T19:16:09.618Z,3.40
2017-11-28T19:18:37.211Z,3.40
2017-11-28T19:21:05.721Z,3.50
2017-11-28T19:23:33.276Z,3.50
2017-11-28T19:26:00.990Z,3.50
2017-11-28T19:28:28.655Z,3.60
2017-11-28T19:30:57.044Z,3.60
2017-11-28T19:33:24.654Z,3.70
2017-11-28T19:35:52.272Z,3.80
2017-11-28T19:38:20.190Z,3.80
2017-11-28T19:40:47.819Z,3.90
2017-11-28T19:43:20.109Z,3.90
2017-11-28T19:45:50.000Z,4.10
2017-11-28T19:48:17.616Z,4.20
2017-11-28T19:50:45.787Z,4.20
2017-11-28T19:53:13.892Z,4.30
2017-11-28T19:55:41.661Z,4.30
2017-11-28T19:58:09.501Z,4.30
2017-11-28T20:00:37.227Z,4.30
2017-11-28T20:03:05.125Z,4.30
2017-11-28T20:05:32.942Z,4.30
2017-11-28T20:08:00.713Z,4.30
2017-11-28T20:10:29.116Z,4.30
2017-11-28T20:12:56.715Z,4.40
2017-11-28T20:15:24.481Z,4.40
2017-11-28T20:17:52.334Z,4.40
2017-11-28T20:20:20.148Z,4.40
2017-11-28T20:22:48.094Z,4.40
2017-11-28T20:25:16.004Z,4.40
2017-11-28T20:27:44.448Z,4.30
2017-11-28T20:30:12.504Z,4.30
2017-11-28T20:32:40.194Z,4.30
2017-11-28T20:35:07.756Z,4.30
2017-11-28T20:37:46.669Z,4.30
2017-11-28T20:40:14.455Z,4.30
2017-11-28T20:42:42.438Z,4.40
2017-11-28T20:45:10.003Z,4.30
2017-11-28T20:47:37.624Z,4.30
2017-11-28T20:50:05.274Z,4.30
2017-11-28T20:52:32.848Z,4.20
2017-11-28T20:55:00.663Z,4.30
2017-11-28T20:57:28.255Z,4.20
2017-11-28T20:59:56.649Z,4.30
2017-11-28T21:02:24.238Z,4.30
2017-11-28T21:04:51.806Z,4.30
2017-11-28T21:07:19.384Z,4.30
2017-11-28T21:09:46.940Z,4.30
2017-11-28T21:12:14.521Z,4.30
2017-11-28T21:14:42.145Z,4.30
2017-11-28T21:17:10.571Z,4.30
2017-11-28T21:19:38.478Z,4.30
2017-11-28T21:22:06.077Z,4.30
2017-11-28T21:24:34.413Z,4.30
2017-11-28T21:27:02.118Z,4.30
2017-11-28T21:29:30.101Z,4.30
2017-11-28T21:31:58.525Z,4.30
2017-11-28T21:34:26.115Z,4.30
2017-11-28T21:36:53.761Z,4.30
2017-11-28T21:39:21.344Z,4.30
2017-11-28T21:41:49.680Z,4.20
2017-11-28T21:44:17.443Z,4.20
2017-11-28T21:46:45.041Z,4.30
2017-11-28T21:49:13.427Z,4.30
2017-11-28T21:51:41.852Z,4.40
2017-11-28T21:54:10.069Z,4.40
2017-11-28T21:56:37.708Z,4.40
2017-11-28T21:59:05.329Z,4.40
2017-11-28T22:01:32.930Z,4.40
2017-11-28T22:04:00.523Z,4.40
2017-11-28T22:06:28.933Z,4.40
2017-11-28T22:08:56.538Z,4.40
2017-11-28T22:11:24.152Z,4.40
2017-11-28T22:13:51.769Z,4.40
2017-11-28T22:16:19.412Z,4.40
2017-11-28T22:18:46.988Z,4.40
2017-11-28T22:21:14.560Z,4.50
2017-11-28T22:23:42.156Z,4.40
2017-11-28T22:26:09.752Z,4.40
2017-11-28T22:28:38.213Z,4.50
2017-11-28T22:31:05.807Z,4.40
2017-11-28T22:33:33.367Z,4.40
2017-11-28T22:36:00.918Z,4.40
2017-11-28T22:38:28.503Z,4.40
2017-11-28T22:40:56.089Z,4.40
2017-11-28T22:43:23.674Z,4.40
2017-11-28T22:45:52.018Z,4.40
2017-11-28T22:48:19.586Z,4.40
2017-11-28T22:50:47.214Z,4.40
2017-11-28T22:53:14.816Z,4.40
2017-11-28T22:55:43.149Z,4.40
2017-11-28T22:58:10.854Z,4.30
2017-11-28T23:00:38.485Z,4.40
2017-11-28T23:03:06.063Z,4.30
2017-11-28T23:05:33.624Z,4.40
2017-11-28T23:08:01.173Z,4.40
2017-11-28T23:10:28.738Z,4.40
2017-11-28T23:12:56.303Z,4.40
2017-11-28T23:15:23.891Z,4.40
2017-11-28T23:17:51.434Z,4.40
2017-11-28T23:20:19.031Z,4.40
2017-11-28T23:22:46.607Z,4.40
2017-11-28T23:25:14.176Z,4.40
2017-11-28T23:27:41.728Z,4.40
2017-11-28T23:30:09.306Z,4.50
2017-11-28T23:32:37.078Z,4.40
2017-11-28T23:35:05.624Z,4.40
2017-11-28T23:37:33.197Z,4.40
2017-11-28T23:40:00.766Z,4.40
2017-11-28T23:42:28.352Z,4.40
2017-11-28T23:44:56.677Z,4.40
2017-11-28T23:47:24.228Z,4.30
2017-11-28T23:49:51.769Z,4.40
2017-11-28T23:52:20.127Z,4.40
2017-11-28T23:54:47.666Z,4.40
2017-11-28T23:57:15.207Z,4.30
2017-11-28T23:59:43.677Z,4.30
